createdAt,value
2018-04-07T00:00:54.245Z,9.67
2018-04-07T00:01:54.220Z,9.63
2018-04-07T00:02:54.200Z,9.55
2018-04-07T00:03:54.186Z,9.66
2018-04-07T00:04:54.182Z,9.60
2018-04-07T00:05:54.154Z,9.60
2018-04-07T00:06:54.131Z,9.60
2018-04-07T00:07:54.118Z,9.55
2018-04-07T00:08:54.092Z,9.54
2018-04-07T00:09:54.082Z,9.57
2018-04-07T00:10:54.062Z,9.63
2018-04-07T00:11:54.040Z,9.60
2018-04-07T00:12:54.022Z,9.63
2018-04-07T00:13:54.013Z,9.60
2018-04-07T00:14:53.988Z,9.70
2018-04-07T00:15:53.965Z,9.65
2018-04-07T00:16:53.947Z,9.63
2018-04-07T00:17:53.930Z,9.65
2018-04-07T00:18:53.909Z,9.59
2018-04-07T00:19:53.900Z,9.60
2018-04-07T00:20:53.883Z,9.73
2018-04-07T00:21:53.864Z,9.65
2018-04-07T00:22:53.840Z,9.73
2018-04-07T00:23:53.820Z,9.60
2018-04-07T00:24:53.814Z,9.63
2018-04-07T00:25:53.789Z,9.57
2018-04-07T00:26:53.774Z,9.60
2018-04-07T00:27:53.749Z,9.48
2018-04-07T00:28:53.730Z,9.45
2018-04-07T00:29:53.711Z,9.40
2018-04-07T00:30:53.700Z,9.44
2018-04-07T00:31:53.686Z,9.45
2018-04-07T00:32:53.660Z,9.40
2018-04-07T00:33:53.640Z,9.27
2018-04-07T00:34:53.626Z,9.30
2018-04-07T00:35:53.610Z,9.30
2018-04-07T00:36:53.587Z,9.34
2018-04-07T00:37:53.574Z,9.24
2018-04-07T00:38:53.552Z,9.26
2018-04-07T00:39:53.530Z,9.30
2018-04-07T00:40:53.510Z,9.27
2018-04-07T00:41:53.491Z,9.33
2018-04-07T00:42:53.484Z,9.24
2018-04-07T00:43:53.455Z,9.24
2018-04-07T00:44:53.441Z,9.30
2018-04-07T00:45:53.419Z,9.27
2018-04-07T00:46:53.401Z,9.47
2018-04-07T00:47:53.388Z,9.47
2018-04-07T00:48:53.369Z,9.52
2018-04-07T00:49:53.343Z,9.60
2018-04-07T00:50:53.325Z,9.60
2018-04-07T00:51:53.307Z,9.37
2018-04-07T00:52:53.293Z,9.37
2018-04-07T00:53:53.272Z,9.42
2018-04-07T00:54:53.263Z,9.27
2018-04-07T00:55:53.235Z,9.41
2018-04-07T00:56:53.221Z,9.41
2018-04-07T00:57:53.202Z,9.40
2018-04-07T00:58:53.179Z,9.44
2018-04-07T00:59:53.161Z,9.41
2018-04-07T01:00:53.142Z,9.48
2018-04-07T01:01:53.123Z,9.59
2018-04-07T01:02:53.106Z,9.54
2018-04-07T01:03:53.087Z,9.66
2018-04-07T01:04:53.071Z,9.67
2018-04-07T01:05:53.053Z,9.66
2018-04-07T01:06:53.033Z,9.75
2018-04-07T01:07:53.016Z,9.75
2018-04-07T01:08:53.001Z,9.73
2018-04-07T01:09:52.982Z,9.78
2018-04-07T01:10:52.965Z,9.65
2018-04-07T01:11:52.941Z,9.59
2018-04-07T01:12:52.924Z,9.60
2018-04-07T01:13:52.914Z,9.51
2018-04-07T01:14:52.895Z,9.42
2018-04-07T01:15:52.872Z,9.42
2018-04-07T01:16:52.851Z,9.44
2018-04-07T01:17:52.831Z,9.41
2018-04-07T01:18:52.818Z,9.42
2018-04-07T01:19:52.803Z,9.48
2018-04-07T01:20:52.782Z,9.37
2018-04-07T01:21:52.760Z,9.48
2018-04-07T01:22:52.741Z,9.44
2018-04-07T01:23:52.727Z,9.42
2018-04-07T01:24:52.708Z,9.41
2018-04-07T01:25:52.692Z,9.45
2018-04-07T01:26:52.672Z,9.44
2018-04-07T01:27:52.652Z,9.41
2018-04-07T01:28:52.631Z,9.30
2018-04-07T01:29:52.610Z,9.42
2018-04-07T01:30:52.599Z,9.37
2018-04-07T01:31:52.581Z,9.45
2018-04-07T01:32:52.562Z,9.41
2018-04-07T01:33:52.542Z,9.44
2018-04-07T01:34:52.528Z,9.44
2018-04-07T01:35:52.512Z,9.50
2018-04-07T01:36:52.490Z,9.41
2018-04-07T01:37:52.471Z,9.27
2018-04-07T01:38:52.452Z,9.29
2018-04-07T01:39:52.432Z,9.27
2018-04-07T01:40:52.412Z,9.30
2018-04-07T01:41:52.394Z,9.16
2018-04-07T01:42:52.382Z,9.08
2018-04-07T01:43:52.363Z,9.08
2018-04-07T01:44:52.340Z,8.98
2018-04-07T01:45:52.319Z,8.92
2018-04-07T01:46:52.304Z,8.96
2018-04-07T01:47:52.293Z,8.96
2018-04-07T01:48:52.266Z,9.11
2018-04-07T01:49:52.251Z,9.16
2018-04-07T01:50:52.231Z,9.03
2018-04-07T01:51:52.212Z,8.95
2018-04-07T01:52:52.190Z,9.04
2018-04-07T01:53:52.174Z,8.96
2018-04-07T01:54:52.159Z,9.08
2018-04-07T01:55:52.141Z,9.08
2018-04-07T01:56:52.121Z,9.04
2018-04-07T01:57:52.100Z,8.99
2018-04-07T01:58:52.080Z,8.89
2018-04-07T01:59:52.068Z,8.98
2018-04-07T02:00:52.047Z,8.86
2018-04-07T02:01:52.034Z,8.89
2018-04-07T02:02:52.010Z,8.83
2018-04-07T02:03:51.995Z,8.80
2018-04-07T02:04:51.970Z,8.74
2018-04-07T02:05:51.952Z,8.75
2018-04-07T02:06:51.936Z,8.74
2018-04-07T02:07:51.922Z,8.70
2018-04-07T02:08:51.900Z,8.75
2018-04-07T02:09:51.879Z,8.67
2018-04-07T02:10:51.860Z,8.63
2018-04-07T02:11:51.840Z,8.63
2018-04-07T02:12:51.826Z,8.63
2018-04-07T02:13:51.811Z,8.70
2018-04-07T02:14:51.788Z,8.68
2018-04-07T02:15:51.772Z,8.75
2018-04-07T02:16:51.751Z,8.80
2018-04-07T02:17:51.741Z,8.67
2018-04-07T02:18:51.716Z,8.62
2018-04-07T02:19:51.693Z,8.63
2018-04-07T02:20:51.680Z,8.62
2018-04-07T02:21:51.658Z,8.62
2018-04-07T02:22:51.639Z,8.60
2018-04-07T02:23:51.621Z,8.57
2018-04-07T02:24:51.602Z,8.65
2018-04-07T02:25:51.582Z,8.47
2018-04-07T02:26:51.561Z,8.47
2018-04-07T02:27:51.544Z,8.55
2018-04-07T02:28:51.527Z,8.55
2018-04-07T02:29:51.503Z,8.47
2018-04-07T02:30:51.490Z,8.41
2018-04-07T02:31:51.475Z,8.44
2018-04-07T02:32:51.515Z,8.49
2018-04-07T02:33:51.431Z,8.39
2018-04-07T02:34:51.413Z,8.38
2018-04-07T02:35:51.396Z,8.38
2018-04-07T02:36:51.381Z,8.42
2018-04-07T02:37:51.354Z,8.34
2018-04-07T02:38:51.338Z,8.23
2018-04-07T02:39:51.320Z,8.34
2018-04-07T02:40:51.296Z,8.38
2018-04-07T02:41:51.281Z,8.34
2018-04-07T02:42:51.260Z,8.47
2018-04-07T02:43:51.241Z,8.37
2018-04-07T02:44:51.222Z,8.46
2018-04-07T02:45:51.202Z,8.34
2018-04-07T02:46:51.188Z,8.39
2018-04-07T02:47:51.169Z,8.42
2018-04-07T02:48:51.151Z,8.38
2018-04-07T02:49:51.131Z,8.42
2018-04-07T02:50:51.109Z,8.35
2018-04-07T02:51:51.094Z,8.39
2018-04-07T02:52:51.071Z,8.34
2018-04-07T02:53:51.052Z,8.39
2018-04-07T02:54:51.032Z,8.23
2018-04-07T02:55:51.012Z,8.16
2018-04-07T02:56:51.000Z,8.16
2018-04-07T02:57:50.977Z,8.17
2018-04-07T02:58:50.965Z,8.31
2018-04-07T02:59:50.936Z,8.16
2018-04-07T03:00:50.918Z,8.20
2018-04-07T03:01:50.898Z,8.23
2018-04-07T03:02:50.930Z,8.23
2018-04-07T03:03:50.869Z,8.29
2018-04-07T03:04:50.840Z,8.37
2018-04-07T03:05:50.826Z,8.32
2018-04-07T03:06:50.808Z,8.23
2018-04-07T03:07:50.782Z,8.17
2018-04-07T03:08:50.772Z,8.19
2018-04-07T03:09:50.749Z,8.24
2018-04-07T03:10:50.727Z,8.21
2018-04-07T03:11:50.708Z,8.14
2018-04-07T03:12:50.693Z,8.06
2018-04-07T03:13:50.670Z,8.04
2018-04-07T03:14:50.653Z,8.16
2018-04-07T03:15:50.633Z,8.21
2018-04-07T03:16:50.615Z,8.20
2018-04-07T03:17:50.601Z,8.21
2018-04-07T03:18:50.573Z,8.20
2018-04-07T03:19:50.559Z,8.14
2018-04-07T03:20:50.567Z,8.09
2018-04-07T03:21:50.518Z,8.04
2018-04-07T03:22:50.504Z,8.13
2018-04-07T03:23:50.482Z,8.09
2018-04-07T03:24:50.460Z,7.95
2018-04-07T03:25:50.441Z,7.98
2018-04-07T03:26:50.422Z,7.92
2018-04-07T03:27:50.402Z,8.06
2018-04-07T03:28:50.383Z,7.99
2018-04-07T03:29:50.364Z,8.10
2018-04-07T03:30:50.348Z,8.16
2018-04-07T03:31:50.331Z,8.14
2018-04-07T03:32:50.306Z,8.20
2018-04-07T03:33:50.286Z,8.17
2018-04-07T03:34:50.272Z,8.14
2018-04-07T03:35:50.251Z,8.17
2018-04-07T03:36:50.229Z,8.13
2018-04-07T03:37:50.211Z,8.17
2018-04-07T03:38:50.191Z,7.99
2018-04-07T03:39:50.175Z,8.05
2018-04-07T03:40:50.156Z,8.19
2018-04-07T03:41:50.142Z,8.04
2018-04-07T03:42:50.118Z,8.10
2018-04-07T03:43:50.103Z,8.12
2018-04-07T03:44:50.075Z,8.02
2018-04-07T03:45:50.055Z,8.05
2018-04-07T03:46:50.042Z,8.05
2018-04-07T03:47:50.021Z,8.04
2018-04-07T03:48:49.997Z,8.09
2018-04-07T03:49:49.983Z,8.05
2018-04-07T03:50:49.956Z,8.02
2018-04-07T03:51:49.942Z,7.99
2018-04-07T03:52:49.921Z,8.02
2018-04-07T03:53:49.901Z,7.98
2018-04-07T03:54:49.881Z,7.96
2018-04-07T03:55:49.860Z,8.06
2018-04-07T03:56:49.841Z,8.02
2018-04-07T03:57:49.828Z,8.04
2018-04-07T03:58:49.805Z,7.92
2018-04-07T03:59:49.785Z,7.86
2018-04-07T04:00:49.767Z,7.86
2018-04-07T04:01:49.751Z,7.96
2018-04-07T04:02:49.731Z,7.83
2018-04-07T04:03:49.706Z,7.98
2018-04-07T04:04:49.692Z,8.01
2018-04-07T04:05:49.679Z,8.02
2018-04-07T04:06:49.649Z,8.01
2018-04-07T04:07:49.630Z,8.02
2018-04-07T04:08:49.612Z,8.09
2018-04-07T04:09:49.591Z,8.01
2018-04-07T04:10:49.579Z,8.02
2018-04-07T04:11:49.563Z,7.99
2018-04-07T04:12:49.541Z,7.98
2018-04-07T04:13:49.520Z,7.96
2018-04-07T04:14:49.502Z,8.04
2018-04-07T04:15:49.483Z,8.09
2018-04-07T04:16:49.459Z,8.10
2018-04-07T04:17:49.441Z,8.09
2018-04-07T04:18:49.421Z,8.12
2018-04-07T04:19:49.399Z,8.16
2018-04-07T04:20:49.382Z,8.21
2018-04-07T04:21:49.362Z,8.20
2018-04-07T04:22:49.341Z,8.26
2018-04-07T04:23:49.322Z,8.26
2018-04-07T04:24:49.303Z,8.31
2018-04-07T04:25:49.288Z,8.28
2018-04-07T04:26:49.266Z,8.21
2018-04-07T04:27:49.251Z,8.20
2018-04-07T04:28:49.225Z,8.20
2018-04-07T04:29:49.215Z,8.14
2018-04-07T04:30:49.196Z,8.04
2018-04-07T04:31:49.171Z,7.98
2018-04-07T04:32:49.151Z,7.99
2018-04-07T04:33:49.132Z,7.80
2018-04-07T04:34:49.111Z,7.80
2018-04-07T04:35:49.098Z,7.74
2018-04-07T04:36:49.082Z,7.76
2018-04-07T04:37:49.063Z,7.69
2018-04-07T04:38:49.040Z,7.78
2018-04-07T04:39:49.019Z,7.68
2018-04-07T04:40:49.002Z,7.84
2018-04-07T04:41:48.982Z,7.84
2018-04-07T04:42:48.960Z,7.81
2018-04-07T04:43:48.941Z,7.81
2018-04-07T04:44:48.919Z,7.81
2018-04-07T04:45:48.903Z,7.81
2018-04-07T04:46:48.880Z,7.83
2018-04-07T04:47:48.862Z,7.86
2018-04-07T04:48:48.841Z,7.88
2018-04-07T04:49:48.824Z,7.80
2018-04-07T04:50:48.807Z,7.81
2018-04-07T04:51:48.791Z,7.80
2018-04-07T04:52:48.775Z,7.73
2018-04-07T04:53:48.751Z,7.71
2018-04-07T04:54:48.727Z,7.69
2018-04-07T04:55:48.706Z,7.68
2018-04-07T04:56:48.691Z,7.69
2018-04-07T04:57:48.671Z,7.68
2018-04-07T04:58:48.652Z,7.74
2018-04-07T04:59:48.635Z,7.69
2018-04-07T05:00:48.609Z,7.77
2018-04-07T05:01:48.590Z,7.74
2018-04-07T05:02:48.571Z,7.68
2018-04-07T05:03:48.554Z,7.66
2018-04-07T05:04:48.531Z,7.61
2018-04-07T05:05:48.522Z,7.62
2018-04-07T05:06:48.499Z,7.73
2018-04-07T05:07:48.478Z,7.66
2018-04-07T05:08:48.458Z,7.69
2018-04-07T05:09:48.438Z,7.69
2018-04-07T05:10:48.421Z,7.86
2018-04-07T05:11:48.402Z,7.91
2018-04-07T05:12:48.381Z,7.94
2018-04-07T05:13:48.370Z,7.81
2018-04-07T05:14:48.342Z,7.94
2018-04-07T05:15:48.327Z,7.95
2018-04-07T05:16:48.301Z,7.88
2018-04-07T05:17:48.282Z,7.88
2018-04-07T05:18:48.262Z,7.94
2018-04-07T05:19:48.254Z,7.94
2018-04-07T05:20:48.223Z,7.98
2018-04-07T05:21:48.211Z,8.02
2018-04-07T05:22:48.193Z,8.09
2018-04-07T05:23:48.173Z,8.12
2018-04-07T05:24:48.150Z,8.10
2018-04-07T05:25:48.131Z,8.04
2018-04-07T05:26:48.111Z,8.06
2018-04-07T05:27:48.093Z,7.98
2018-04-07T05:28:48.068Z,8.04
2018-04-07T05:29:48.051Z,7.94
2018-04-07T05:30:48.033Z,8.05
2018-04-07T05:31:48.010Z,8.06
2018-04-07T05:32:47.992Z,8.04
2018-04-07T05:33:47.974Z,8.02
2018-04-07T05:34:47.951Z,8.02
2018-04-07T05:35:47.942Z,8.01
2018-04-07T05:36:47.917Z,8.06
2018-04-07T05:37:47.901Z,8.10
2018-04-07T05:38:47.877Z,8.12
2018-04-07T05:39:47.866Z,8.16
2018-04-07T05:40:47.835Z,8.17
2018-04-07T05:41:47.822Z,8.17
2018-04-07T05:42:47.800Z,8.13
2018-04-07T05:43:47.784Z,8.19
2018-04-07T05:44:47.763Z,8.20
2018-04-07T05:45:47.752Z,8.24
2018-04-07T05:46:47.729Z,8.32
2018-04-07T05:47:47.704Z,8.42
2018-04-07T05:48:47.692Z,8.37
2018-04-07T05:49:47.684Z,8.34
2018-04-07T05:50:47.656Z,8.44
2018-04-07T05:51:47.631Z,8.42
2018-04-07T05:52:47.607Z,8.49
2018-04-07T05:53:47.596Z,8.52
2018-04-07T05:54:47.621Z,8.65
2018-04-07T05:55:47.552Z,8.62
2018-04-07T05:56:47.542Z,8.63
2018-04-07T05:57:47.512Z,8.70
2018-04-07T05:58:47.499Z,8.62
2018-04-07T05:59:47.481Z,8.65
2018-04-07T06:00:47.459Z,8.63
2018-04-07T06:01:47.436Z,8.68
2018-04-07T06:02:47.417Z,8.67
2018-04-07T06:03:47.411Z,8.63
2018-04-07T06:04:47.383Z,8.75
2018-04-07T06:05:47.361Z,8.67
2018-04-07T06:06:47.343Z,8.75
2018-04-07T06:07:47.322Z,8.81
2018-04-07T06:08:47.311Z,8.81
2018-04-07T06:09:47.295Z,8.81
2018-04-07T06:10:47.268Z,8.86
2018-04-07T06:11:47.253Z,8.95
2018-04-07T06:12:47.230Z,8.98
2018-04-07T06:13:47.213Z,8.96
2018-04-07T06:14:47.194Z,8.98
2018-04-07T06:15:47.179Z,9.04
2018-04-07T06:16:47.157Z,9.09
2018-04-07T06:17:47.143Z,9.08
2018-04-07T06:18:47.122Z,9.15
2018-04-07T06:19:47.098Z,9.26
2018-04-07T06:20:47.083Z,9.33
2018-04-07T06:21:47.071Z,9.27
2018-04-07T06:22:47.091Z,9.30
2018-04-07T06:23:47.029Z,9.45
2018-04-07T06:24:47.008Z,9.44
2018-04-07T06:25:46.990Z,9.44
2018-04-07T06:26:46.973Z,9.48
2018-04-07T06:27:46.951Z,9.62
2018-04-07T06:28:46.954Z,9.57
2018-04-07T06:29:46.914Z,9.51
2018-04-07T06:30:46.901Z,9.57
2018-04-07T06:31:46.877Z,9.60
2018-04-07T06:32:46.859Z,9.73
2018-04-07T06:33:46.838Z,9.80
2018-04-07T06:34:46.821Z,9.91
2018-04-07T06:35:46.803Z,9.94
2018-04-07T06:36:46.783Z,10.05
2018-04-07T06:37:46.775Z,10.12
2018-04-07T06:38:46.759Z,10.21
2018-04-07T06:39:46.732Z,10.20
2018-04-07T06:40:46.721Z,10.18
2018-04-07T06:41:46.694Z,10.21
2018-04-07T06:42:46.683Z,10.36
2018-04-07T06:43:46.657Z,10.43
2018-04-07T06:44:46.649Z,10.55
2018-04-07T06:45:46.627Z,10.67
2018-04-07T06:46:46.615Z,10.76
2018-04-07T06:47:46.598Z,10.83
2018-04-07T06:48:46.568Z,10.94
2018-04-07T06:49:46.550Z,11.03
2018-04-07T06:50:46.540Z,11.08
2018-04-07T06:51:46.523Z,11.22
2018-04-07T06:52:46.514Z,11.31
2018-04-07T06:53:46.485Z,11.51
2018-04-07T06:54:46.472Z,11.61
2018-04-07T06:55:46.450Z,11.73
2018-04-07T06:56:46.475Z,11.93
2018-04-07T06:57:46.419Z,12.21
2018-04-07T06:58:46.409Z,12.66
2018-04-07T06:59:46.397Z,12.80
2018-04-07T07:00:46.379Z,13.17
2018-04-07T07:01:46.368Z,13.71
2018-04-07T07:02:46.351Z,14.22
2018-04-07T07:03:46.340Z,14.82
2018-04-07T07:04:46.327Z,14.87
2018-04-07T07:05:46.313Z,15.35
2018-04-07T07:06:46.303Z,15.58
2018-04-07T07:07:46.296Z,15.78
2018-04-07T07:08:46.280Z,15.66
2018-04-07T07:09:46.278Z,15.58
2018-04-07T07:10:46.270Z,15.54
2018-04-07T07:11:46.249Z,15.45
2018-04-07T07:12:46.241Z,15.62
2018-04-07T07:13:46.230Z,14.85
2018-04-07T07:14:46.219Z,14.21
2018-04-07T07:15:46.210Z,14.09
2018-04-07T07:16:46.204Z,14.51
2018-04-07T07:17:46.190Z,14.73
2018-04-07T07:18:46.182Z,15.14
2018-04-07T07:19:46.226Z,14.97
2018-04-07T07:20:46.161Z,15.07
2018-04-07T07:21:46.158Z,15.11
2018-04-07T07:22:46.155Z,15.50
2018-04-07T07:23:46.197Z,15.56
2018-04-07T07:24:46.127Z,15.58
2018-04-07T07:25:46.117Z,15.93
2018-04-07T07:26:46.110Z,15.81
2018-04-07T07:27:46.160Z,16.21
2018-04-07T07:28:46.094Z,16.55
2018-04-07T07:29:46.087Z,16.76
2018-04-07T07:30:46.079Z,16.95
2018-04-07T07:31:46.074Z,16.84
2018-04-07T07:32:46.071Z,16.80
2018-04-07T07:33:46.062Z,16.84
2018-04-07T07:34:46.053Z,17.19
2018-04-07T07:35:46.045Z,17.47
2018-04-07T07:36:46.099Z,17.78
2018-04-07T07:37:46.032Z,18.11
2018-04-07T07:38:46.029Z,18.24
2018-04-07T07:39:46.022Z,18.49
2018-04-07T07:40:46.011Z,19.09
2018-04-07T07:41:46.006Z,18.89
2018-04-07T07:42:46.010Z,18.33
2018-04-07T07:43:46.001Z,17.53
2018-04-07T07:44:45.995Z,16.95
2018-04-07T07:45:45.988Z,17.39
2018-04-07T07:46:46.066Z,17.62
2018-04-07T07:47:45.984Z,17.53
2018-04-07T07:48:45.972Z,18.41
2018-04-07T07:49:45.971Z,17.86
2018-04-07T07:50:45.974Z,17.71
2018-04-07T07:51:45.961Z,18.28
2018-04-07T07:52:46.012Z,18.42
2018-04-07T07:53:45.950Z,18.61
2018-04-07T07:54:45.949Z,18.85
2018-04-07T07:55:45.943Z,19.30
2018-04-07T07:56:45.942Z,18.48
2018-04-07T07:57:45.935Z,18.98
2018-04-07T07:58:45.960Z,19.39
2018-04-07T07:59:45.927Z,19.45
2018-04-07T08:00:45.923Z,20.05
2018-04-07T08:01:45.921Z,20.19
2018-04-07T08:02:45.974Z,19.99
2018-04-07T08:03:45.915Z,19.92
2018-04-07T08:04:45.915Z,19.90
2018-04-07T08:05:45.912Z,19.93
2018-04-07T08:06:45.916Z,20.12
2018-04-07T08:07:45.907Z,20.07
2018-04-07T08:08:45.907Z,21.44
2018-04-07T08:09:45.902Z,21.34
2018-04-07T08:10:45.915Z,21.48
2018-04-07T08:11:45.908Z,22.01
2018-04-07T08:12:45.902Z,22.43
2018-04-07T08:13:45.900Z,23.04
2018-04-07T08:14:45.906Z,23.21
2018-04-07T08:15:45.901Z,21.59
2018-04-07T08:16:45.902Z,21.34
2018-04-07T08:17:45.902Z,22.09
2018-04-07T08:18:45.913Z,21.19
2018-04-07T08:19:45.922Z,20.68
2018-04-07T08:20:45.973Z,20.49
2018-04-07T08:21:45.964Z,21.35
2018-04-07T08:22:45.911Z,22.25
2018-04-07T08:23:45.907Z,22.30
2018-04-07T08:24:45.903Z,21.80
2018-04-07T08:25:45.910Z,22.04
2018-04-07T08:26:45.915Z,21.44
2018-04-07T08:27:45.912Z,21.10
2018-04-07T08:28:45.911Z,21.38
2018-04-07T08:29:45.969Z,21.40
2018-04-07T08:30:45.912Z,21.45
2018-04-07T08:31:45.916Z,21.71
2018-04-07T08:32:45.914Z,21.91
2018-04-07T08:33:45.918Z,22.43
2018-04-07T08:34:45.916Z,23.10
2018-04-07T08:35:45.927Z,23.98
2018-04-07T08:36:45.918Z,23.23
2018-04-07T08:37:45.923Z,23.84
2018-04-07T08:38:45.920Z,24.47
2018-04-07T08:39:45.933Z,24.65
2018-04-07T08:40:45.921Z,24.97
2018-04-07T08:41:45.928Z,25.59
2018-04-07T08:42:45.929Z,25.46
2018-04-07T08:43:45.927Z,25.90
2018-04-07T08:44:45.935Z,25.48
2018-04-07T08:45:45.931Z,25.98
2018-04-07T08:46:45.936Z,25.31
2018-04-07T08:47:45.935Z,25.75
2018-04-07T08:48:45.984Z,24.85
2018-04-07T08:49:45.943Z,23.82
2018-04-07T08:50:45.946Z,24.96
2018-04-07T08:51:45.945Z,25.77
2018-04-07T08:52:45.950Z,26.33
2018-04-07T08:53:45.960Z,26.03
2018-04-07T08:54:45.955Z,25.38
2018-04-07T08:55:45.963Z,25.92
2018-04-07T08:56:45.960Z,26.64
2018-04-07T08:57:45.966Z,27.20
2018-04-07T08:58:45.982Z,27.66
2018-04-07T08:59:45.971Z,27.40
2018-04-07T09:00:45.974Z,27.52
2018-04-07T09:01:45.978Z,27.69
2018-04-07T09:02:45.978Z,26.93
2018-04-07T09:03:45.981Z,26.49
2018-04-07T09:04:45.988Z,25.33
2018-04-07T09:05:45.985Z,26.08
2018-04-07T09:06:45.989Z,25.58
2018-04-07T09:07:45.997Z,24.93
2018-04-07T09:08:45.997Z,25.43
2018-04-07T09:09:46.047Z,25.27
2018-04-07T09:10:46.020Z,24.34
2018-04-07T09:11:46.104Z,25.33
2018-04-07T09:12:46.013Z,25.92
2018-04-07T09:13:46.017Z,25.27
2018-04-07T09:14:46.007Z,25.66
2018-04-07T09:15:46.008Z,25.41
2018-04-07T09:16:46.010Z,24.66
2018-04-07T09:17:46.009Z,25.77
2018-04-07T09:18:46.012Z,25.73
2018-04-07T09:19:46.019Z,26.12
2018-04-07T09:20:46.017Z,26.11
2018-04-07T09:21:46.019Z,26.51
2018-04-07T09:22:46.017Z,26.53
2018-04-07T09:23:46.017Z,26.08
2018-04-07T09:24:46.019Z,24.89
2018-04-07T09:25:46.054Z,24.19
2018-04-07T09:26:46.016Z,24.68
2018-04-07T09:27:46.016Z,24.76
2018-04-07T09:28:46.016Z,24.47
2018-04-07T09:29:46.014Z,23.74
2018-04-07T09:30:46.014Z,23.98
2018-04-07T09:31:46.008Z,24.70
2018-04-07T09:32:46.013Z,24.59
2018-04-07T09:33:46.007Z,24.84
2018-04-07T09:34:46.118Z,24.82
2018-04-07T09:35:46.009Z,25.63
2018-04-07T09:36:46.057Z,25.22
2018-04-07T09:37:46.000Z,24.93
2018-04-07T09:38:46.000Z,24.93
2018-04-07T09:39:45.998Z,25.70
2018-04-07T09:40:46.012Z,26.21
2018-04-07T09:41:45.994Z,25.67
2018-04-07T09:42:45.991Z,25.33
2018-04-07T09:43:45.996Z,24.10
2018-04-07T09:44:45.992Z,23.29
2018-04-07T09:45:45.987Z,24.43
2018-04-07T09:46:45.978Z,25.30
2018-04-07T09:47:45.974Z,26.49
2018-04-07T09:48:45.974Z,27.19
2018-04-07T09:49:45.967Z,24.90
2018-04-07T09:50:45.961Z,25.85
2018-04-07T09:51:45.958Z,25.22
2018-04-07T09:52:45.957Z,26.08
2018-04-07T09:53:45.949Z,26.58
2018-04-07T09:54:45.962Z,26.01
2018-04-07T09:55:45.943Z,26.21
2018-04-07T09:56:45.935Z,24.51
2018-04-07T09:57:45.930Z,23.51
2018-04-07T09:58:45.928Z,23.96
2018-04-07T09:59:45.991Z,24.60
2018-04-07T10:00:45.922Z,24.55
2018-04-07T10:01:45.916Z,24.99
2018-04-07T10:02:45.922Z,24.66
2018-04-07T10:03:45.905Z,25.48
2018-04-07T10:04:45.898Z,26.07
2018-04-07T10:05:45.891Z,26.30
2018-04-07T10:06:45.889Z,24.99
2018-04-07T10:07:45.882Z,23.73
2018-04-07T10:08:45.893Z,23.54
2018-04-07T10:09:45.878Z,23.36
2018-04-07T10:10:45.872Z,22.68
2018-04-07T10:11:45.866Z,22.61
2018-04-07T10:12:45.864Z,22.70
2018-04-07T10:13:45.845Z,23.23
2018-04-07T10:14:45.840Z,23.18
2018-04-07T10:15:45.847Z,23.10
2018-04-07T10:16:45.837Z,22.21
2018-04-07T10:17:45.823Z,22.09
2018-04-07T10:18:45.817Z,22.81
2018-04-07T10:19:45.812Z,23.69
2018-04-07T10:20:45.803Z,23.11
2018-04-07T10:21:45.804Z,22.89
2018-04-07T10:22:45.794Z,22.80
2018-04-07T10:23:45.785Z,22.62
2018-04-07T10:24:45.774Z,21.91
2018-04-07T10:25:45.765Z,21.91
2018-04-07T10:26:45.767Z,22.16
2018-04-07T10:27:45.753Z,22.44
2018-04-07T10:28:45.757Z,22.51
2018-04-07T10:29:45.736Z,22.85
2018-04-07T10:30:45.732Z,23.25
2018-04-07T10:31:45.733Z,22.80
2018-04-07T10:32:45.714Z,22.88
2018-04-07T10:33:45.713Z,22.95
2018-04-07T10:34:45.702Z,23.11
2018-04-07T10:35:45.704Z,23.79
2018-04-07T10:36:45.694Z,23.25
2018-04-07T10:37:45.684Z,23.59
2018-04-07T10:38:45.675Z,24.04
2018-04-07T10:39:45.681Z,23.71
2018-04-07T10:40:45.672Z,23.49
2018-04-07T10:41:45.665Z,23.66
2018-04-07T10:42:45.657Z,23.23
2018-04-07T10:43:45.642Z,23.39
2018-04-07T10:44:45.632Z,23.25
2018-04-07T10:45:45.630Z,23.74
2018-04-07T10:46:45.621Z,24.03
2018-04-07T10:47:45.611Z,23.18
2018-04-07T10:48:45.601Z,23.69
2018-04-07T10:49:45.603Z,23.98
2018-04-07T10:50:45.599Z,23.81
2018-04-07T10:51:45.592Z,24.16
2018-04-07T10:52:45.659Z,24.62
2018-04-07T10:53:45.568Z,25.22
2018-04-07T10:54:45.571Z,25.53
2018-04-07T10:55:45.563Z,25.27
2018-04-07T10:56:45.550Z,24.89
2018-04-07T10:57:45.562Z,24.31
2018-04-07T10:58:45.532Z,24.13
2018-04-07T10:59:45.525Z,24.03
2018-04-07T11:00:45.524Z,23.91
2018-04-07T11:01:45.510Z,23.94
2018-04-07T11:02:45.513Z,24.07
2018-04-07T11:03:45.497Z,23.85
2018-04-07T11:04:45.495Z,23.88
2018-04-07T11:05:45.491Z,23.91
2018-04-07T11:06:45.479Z,23.85
2018-04-07T11:07:45.470Z,23.67
2018-04-07T11:08:45.461Z,23.96
2018-04-07T11:09:45.461Z,23.46
2018-04-07T11:10:45.452Z,23.71
2018-04-07T11:11:45.444Z,24.03
2018-04-07T11:12:45.431Z,24.03
2018-04-07T11:13:45.433Z,24.04
2018-04-07T11:14:45.425Z,23.60
2018-04-07T11:15:45.414Z,23.98
2018-04-07T11:16:45.406Z,24.03
2018-04-07T11:17:45.402Z,24.33
2018-04-07T11:18:45.387Z,24.16
2018-04-07T11:19:45.384Z,24.37
2018-04-07T11:20:45.374Z,24.31
2018-04-07T11:21:45.376Z,24.86
2018-04-07T11:22:45.365Z,25.11
2018-04-07T11:23:45.353Z,25.34
2018-04-07T11:24:45.353Z,25.00
2018-04-07T11:25:45.350Z,24.81
2018-04-07T11:26:45.333Z,24.56
2018-04-07T11:27:45.365Z,25.01
2018-04-07T11:28:45.320Z,24.99
2018-04-07T11:29:45.313Z,24.51
2018-04-07T11:30:45.303Z,24.31
2018-04-07T11:31:45.395Z,24.18
2018-04-07T11:32:45.294Z,23.89
2018-04-07T11:33:45.286Z,24.01
2018-04-07T11:34:45.278Z,24.41
2018-04-07T11:35:45.273Z,24.89
2018-04-07T11:36:45.262Z,24.66
2018-04-07T11:37:45.254Z,25.04
2018-04-07T11:38:45.245Z,25.26
2018-04-07T11:39:45.245Z,25.37
2018-04-07T11:40:45.231Z,24.53
2018-04-07T11:41:45.224Z,24.19
2018-04-07T11:42:45.222Z,24.47
2018-04-07T11:43:45.211Z,24.90
2018-04-07T11:44:45.206Z,24.68
2018-04-07T11:45:45.202Z,24.74
2018-04-07T11:46:45.187Z,24.37
2018-04-07T11:47:45.187Z,24.38
2018-04-07T11:48:45.172Z,24.93
2018-04-07T11:49:45.175Z,24.79
2018-04-07T11:50:45.169Z,24.86
2018-04-07T11:51:45.152Z,25.26
2018-04-07T11:52:45.142Z,25.55
2018-04-07T11:53:45.138Z,25.70
2018-04-07T11:54:45.138Z,25.81
2018-04-07T11:55:45.122Z,25.96
2018-04-07T11:56:45.124Z,25.59
2018-04-07T11:57:45.110Z,25.09
2018-04-07T11:58:45.100Z,24.82
2018-04-07T11:59:45.093Z,24.79
2018-04-07T12:00:45.087Z,24.70
2018-04-07T12:01:45.089Z,24.97
2018-04-07T12:02:45.137Z,25.27
2018-04-07T12:03:45.067Z,25.33
2018-04-07T12:04:45.062Z,25.04
2018-04-07T12:05:45.054Z,25.36
2018-04-07T12:06:45.054Z,25.26
2018-04-07T12:07:45.048Z,24.97
2018-04-07T12:08:45.095Z,24.96
2018-04-07T12:09:45.024Z,25.14
2018-04-07T12:10:45.122Z,25.40
2018-04-07T12:11:45.009Z,25.58
2018-04-07T12:12:45.004Z,25.71
2018-04-07T12:13:45.000Z,26.00
2018-04-07T12:14:45.041Z,26.04
2018-04-07T12:15:44.987Z,25.70
2018-04-07T12:16:44.984Z,25.82
2018-04-07T12:17:44.974Z,25.90
2018-04-07T12:18:44.964Z,25.93
2018-04-07T12:19:44.954Z,26.23
2018-04-07T12:20:44.951Z,26.60
2018-04-07T12:21:44.944Z,26.60
2018-04-07T12:22:44.934Z,26.60
2018-04-07T12:23:44.925Z,26.51
2018-04-07T12:24:44.922Z,26.23
2018-04-07T12:25:44.914Z,26.21
2018-04-07T12:26:44.906Z,25.96
2018-04-07T12:27:44.901Z,25.96
2018-04-07T12:28:44.896Z,25.83
2018-04-07T12:29:44.891Z,25.68
2018-04-07T12:30:44.884Z,25.36
2018-04-07T12:31:44.880Z,25.37
2018-04-07T12:32:44.867Z,25.21
2018-04-07T12:33:44.865Z,25.21
2018-04-07T12:34:44.858Z,25.66
2018-04-07T12:35:44.848Z,25.95
2018-04-07T12:36:44.861Z,26.23
2018-04-07T12:37:44.840Z,26.51
2018-04-07T12:38:44.833Z,26.52
2018-04-07T12:39:44.821Z,26.03
2018-04-07T12:40:44.857Z,25.73
2018-04-07T12:41:44.821Z,25.71
2018-04-07T12:42:44.801Z,25.96
2018-04-07T12:43:44.803Z,25.96
2018-04-07T12:44:44.792Z,25.95
2018-04-07T12:45:44.889Z,25.93
2018-04-07T12:46:44.770Z,25.56
2018-04-07T12:47:44.770Z,25.96
2018-04-07T12:48:44.761Z,25.90
2018-04-07T12:49:44.752Z,25.90
2018-04-07T12:50:44.751Z,26.08
2018-04-07T12:51:44.752Z,26.30
2018-04-07T12:52:44.742Z,26.07
2018-04-07T12:53:44.729Z,26.21
2018-04-07T12:54:44.718Z,26.11
2018-04-07T12:55:44.716Z,25.92
2018-04-07T12:56:44.711Z,26.24
2018-04-07T12:57:44.697Z,26.61
2018-04-07T12:58:44.692Z,26.58
2018-04-07T12:59:44.684Z,26.49
2018-04-07T13:00:44.677Z,26.65
2018-04-07T13:01:44.678Z,27.04
2018-04-07T13:02:44.668Z,27.07
2018-04-07T13:03:44.661Z,26.88
2018-04-07T13:04:44.649Z,26.64
2018-04-07T13:05:44.646Z,26.70